createdAt,value
2022-08-14T00:02:01.241Z,99285.75
2022-08-14T00:04:41.820Z,99286.06
2022-08-14T00:07:10.866Z,99287.56
2022-08-14T00:09:55.255Z,99280.09
2022-08-14T00:12:33.615Z,99281.34
2022-08-14T00:15:16.393Z,99276.78
2022-08-14T00:17:47.241Z,99279.19
2022-08-14T00:20:23.461Z,99282.91
2022-08-14T00:22:57.059Z,99278.75
2022-08-14T00:25:30.569Z,99277.34
2022-08-14T00:28:10.659Z,99279.53
2022-08-14T00:30:43.078Z,99274.84
2022-08-14T00:33:16.072Z,99270.03
2022-08-14T00:36:39.508Z,99268.28
2022-08-14T00:38:35.174Z,99271.97
2022-08-14T00:41:04.955Z,99265.66
2022-08-14T00:43:32.731Z,99268.50
2022-08-14T00:46:08.159Z,99262.28
2022-08-14T00:48:51.112Z,99268.66
2022-08-14T00:51:21.905Z,99259.38
2022-08-14T00:53:50.397Z,99262.91
2022-08-14T00:56:21.480Z,99258.97
2022-08-14T00:58:49.280Z,99262.97
2022-08-14T01:01:19.292Z,99261.28
2022-08-14T01:03:52.841Z,99264.59
2022-08-14T01:06:21.361Z,99264.66
2022-08-14T01:08:52.024Z,99267.34
2022-08-14T01:11:35.480Z,99258.66
2022-08-14T01:14:04.990Z,99267.69
2022-08-14T01:16:53.097Z,99269.47
2022-08-14T01:19:41.286Z,99270.31
2022-08-14T01:22:12.531Z,99275.69
2022-08-14T01:24:43.409Z,99276.16
2022-08-14T01:27:17.780Z,99270.97
2022-08-14T01:30:03.180Z,99270.03
2022-08-14T01:32:33.558Z,99268.38
2022-08-14T01:35:18.855Z,99275.59
2022-08-14T01:37:58.366Z,99273.25
2022-08-14T01:40:36.401Z,99278.03
2022-08-14T01:43:18.538Z,99277.72
2022-08-14T01:45:57.590Z,99281.25
2022-08-14T01:48:37.057Z,99292.25
2022-08-14T01:51:06.154Z,99281.56
2022-08-14T01:53:48.082Z,99279.72
2022-08-14T01:56:30.411Z,99281.06
2022-08-14T01:58:58.399Z,99274.94
2022-08-14T02:01:30.984Z,99277.78
2022-08-14T02:03:59.814Z,99273.81
2022-08-14T02:06:33.174Z,99279.44
2022-08-14T02:09:04.312Z,99275.91
2022-08-14T02:11:46.719Z,99279.84
2022-08-14T02:14:31.256Z,99283.66
2022-08-14T02:16:59.395Z,99282.34
2022-08-14T02:19:28.037Z,99286.16
2022-08-14T02:22:03.006Z,99277.00
2022-08-14T02:24:39.697Z,99288.59
2022-08-14T02:28:21.906Z,99282.53
2022-08-14T02:30:02.187Z,99269.28
2022-08-14T02:32:36.393Z,99276.19
2022-08-14T02:35:13.735Z,99276.87
2022-08-14T02:37:45.731Z,99273.16
2022-08-14T02:40:20.964Z,99270.13
2022-08-14T02:43:00.766Z,99276.31
2022-08-14T02:45:38.747Z,99279.22
2022-08-14T02:49:02.063Z,99278.50
2022-08-14T02:51:00.830Z,99280.28
2022-08-14T02:53:31.269Z,99281.50
2022-08-14T02:56:29.723Z,99280.34
2022-08-14T02:58:55.783Z,99289.06
2022-08-14T03:01:31.164Z,99285.09
2022-08-14T03:04:15.175Z,99288.88
2022-08-14T03:06:57.606Z,99288.06
2022-08-14T03:09:42.164Z,99289.69
2022-08-14T03:12:31.781Z,99284.50
2022-08-14T03:15:03.175Z,99288.97
2022-08-14T03:17:41.065Z,99289.97
2022-08-14T03:20:19.186Z,99294.63
2022-08-14T03:22:52.602Z,99291.63
2022-08-14T03:25:22.533Z,99293.22
2022-08-14T03:27:58.779Z,99294.31
2022-08-14T03:30:39.084Z,99285.69
2022-08-14T03:33:10.881Z,99289.78
2022-08-14T03:36:05.708Z,99295.78
2022-08-14T03:39:12.573Z,99296.09
2022-08-14T03:41:32.987Z,99295.19
2022-08-14T03:45:19.260Z,99293.41
2022-08-14T03:46:54.697Z,99283.63
2022-08-14T03:49:28.595Z,99286.44
2022-08-14T03:51:58.367Z,99286.56
2022-08-14T03:54:29.271Z,99288.25
2022-08-14T03:57:02.774Z,99294.91
2022-08-14T03:59:34.189Z,99286.44
2022-08-14T04:02:04.834Z,99292.09
2022-08-14T04:04:53.471Z,99287.84
2022-08-14T04:07:20.834Z,99293.97
2022-08-14T04:09:49.625Z,99291.56
2022-08-14T04:12:26.367Z,99291.59
2022-08-14T04:14:55.483Z,99293.84
2022-08-14T04:17:23.808Z,99298.34
2022-08-14T04:19:52.422Z,99296.53
2022-08-14T04:22:22.530Z,99302.84
2022-08-14T04:24:50.947Z,99300.81
2022-08-14T04:27:18.444Z,99302.44
2022-08-14T04:29:45.689Z,99303.72
2022-08-14T04:33:10.489Z,99300.59
2022-08-14T04:35:11.078Z,99307.22
2022-08-14T04:37:57.613Z,99305.19
2022-08-14T04:40:43.775Z,99314.28
2022-08-14T04:43:38.977Z,99313.84
2022-08-14T04:46:09.529Z,99314.16
2022-08-14T04:48:43.494Z,99310.66
2022-08-14T04:51:12.881Z,99299.63
2022-08-14T04:53:43.719Z,99298.91
2022-08-14T04:56:31.086Z,99302.66
2022-08-14T04:59:10.230Z,99298.25
2022-08-14T05:01:48.969Z,99291.72
2022-08-14T05:04:21.072Z,99296.38
2022-08-14T05:06:53.653Z,99301.03
2022-08-14T05:09:23.953Z,99296.91
2022-08-14T05:11:53.163Z,99300.59
2022-08-14T05:14:45.720Z,99308.44
2022-08-14T05:17:11.498Z,99299.78
2022-08-14T05:19:45.072Z,99306.97
2022-08-14T05:22:28.696Z,99299.78
2022-08-14T05:24:56.135Z,99304.44
2022-08-14T05:27:25.544Z,99304.88
2022-08-14T05:30:00.535Z,99295.47
2022-08-14T05:32:28.657Z,99298.78
2022-08-14T05:35:00.368Z,99292.50
2022-08-14T05:37:30.984Z,99299.25
2022-08-14T05:40:02.191Z,99296.25
2022-08-14T05:42:34.250Z,99303.88
2022-08-14T05:45:04.448Z,99294.56
2022-08-14T05:47:34.139Z,99294.56
2022-08-14T05:50:17.556Z,99303.00
2022-08-14T05:52:48.486Z,99295.91
2022-08-14T05:55:21.784Z,99294.72
2022-08-14T05:57:54.510Z,99304.69
2022-08-14T06:00:29.983Z,99296.91
2022-08-14T06:03:07.022Z,99306.06
2022-08-14T06:05:38.875Z,99301.66
2022-08-14T06:08:35.856Z,99298.09
2022-08-14T06:11:06.290Z,99295.81
2022-08-14T06:13:45.231Z,99293.13
2022-08-14T06:16:18.916Z,99290.28
2022-08-14T06:18:52.760Z,99288.91
2022-08-14T06:21:22.145Z,99287.47
2022-08-14T06:23:59.555Z,99281.84
2022-08-14T06:26:30.230Z,99287.53
2022-08-14T06:29:03.468Z,99275.56
2022-08-14T06:31:32.046Z,99278.25
2022-08-14T06:35:11.362Z,99278.06
2022-08-14T06:36:48.705Z,99277.34
2022-08-14T06:39:18.530Z,99283.84
2022-08-14T06:42:05.955Z,99282.75
2022-08-14T06:44:43.142Z,99280.72
2022-08-14T06:47:12.785Z,99276.59
2022-08-14T06:49:54.576Z,99270.66
2022-08-14T06:52:29.697Z,99271.22
2022-08-14T06:57:41.317Z,99267.66
2022-08-14T07:00:18.205Z,99264.22
2022-08-14T07:03:13.326Z,99260.94
2022-08-14T07:05:55.678Z,99259.53
2022-08-14T07:08:31.518Z,99256.03
2022-08-14T07:13:48.778Z,99264.09
2022-08-14T07:18:55.274Z,99264.56
2022-08-14T07:21:24.370Z,99260.56
2022-08-14T07:23:52.633Z,99259.06
2022-08-14T07:26:22.359Z,99252.16
2022-08-14T07:28:52.013Z,99260.63
2022-08-14T07:31:19.787Z,99250.62
2022-08-14T07:33:54.896Z,99260.38
2022-08-14T07:36:27.786Z,99258.38
2022-08-14T07:39:12.440Z,99249.13
2022-08-14T07:41:44.549Z,99248.19
2022-08-14T07:44:32.366Z,99254.28
2022-08-14T07:47:05.492Z,99250.41
2022-08-14T07:49:38.373Z,99244.84
2022-08-14T07:52:15.355Z,99246.50
2022-08-14T07:54:56.312Z,99244.47
2022-08-14T07:57:28.671Z,99244.56
2022-08-14T07:59:59.326Z,99236.59
2022-08-14T08:02:44.925Z,99239.53
2022-08-14T08:05:22.340Z,99232.03
2022-08-14T08:07:53.396Z,99236.84
2022-08-14T08:11:01.990Z,99238.56
2022-08-14T08:13:29.321Z,99232.94
2022-08-14T08:16:05.221Z,99236.47
2022-08-14T08:18:36.756Z,99239.69
2022-08-14T08:21:11.519Z,99230.91
2022-08-14T08:23:51.104Z,99237.19
2022-08-14T08:26:22.369Z,99233.81
2022-08-14T08:28:57.992Z,99227.94
2022-08-14T08:31:37.381Z,99225.88
2022-08-14T08:36:48.505Z,99223.16
2022-08-14T08:39:22.325Z,99225.47
2022-08-14T08:41:53.502Z,99229.56
2022-08-14T08:44:34.487Z,99227.97
2022-08-14T08:47:08.550Z,99221.66
2022-08-14T08:49:48.678Z,99220.16
2022-08-14T08:52:33.149Z,99229.84
2022-08-14T08:55:04.609Z,99228.38
2022-08-14T09:00:25.698Z,99214.13
2022-08-14T09:02:59.333Z,99214.69
2022-08-14T09:05:29.475Z,99210.13
2022-08-14T09:08:30.599Z,99202.94
2022-08-14T09:11:21.015Z,99206.16
2022-08-14T09:13:51.716Z,99208.06
2022-08-14T09:16:26.421Z,99211.62
2022-08-14T09:18:56.755Z,99205.94
2022-08-14T09:21:36.579Z,99199.66
2022-08-14T09:26:44.049Z,99194.69
2022-08-14T09:29:31.712Z,99193.50
2022-08-14T09:32:04.498Z,99187.56
2022-08-14T09:35:10.606Z,99194.88
2022-08-14T09:37:49.988Z,99183.66
2022-08-14T09:40:34.400Z,99181.06
2022-08-14T09:43:07.202Z,99186.19
2022-08-14T09:45:53.428Z,99185.34
2022-08-14T09:48:32.617Z,99185.59
2022-08-14T09:54:18.102Z,99173.25
2022-08-14T09:56:46.548Z,99166.62
2022-08-14T09:59:33.697Z,99166.44
2022-08-14T10:02:22.256Z,99164.63
2022-08-14T10:05:21.778Z,99158.94
2022-08-14T10:07:53.827Z,99170.53
2022-08-14T10:10:41.622Z,99170.78
2022-08-14T10:13:23.745Z,99166.59
2022-08-14T10:15:51.937Z,99155.69
2022-08-14T10:18:21.553Z,99154.00
2022-08-14T10:20:55.400Z,99158.38
2022-08-14T10:23:25.018Z,99163.66
2022-08-14T10:26:00.349Z,99155.53
2022-08-14T10:29:18.071Z,99160.25
2022-08-14T10:31:45.446Z,99150.16
2022-08-14T10:34:19.650Z,99151.94
2022-08-14T10:37:02.535Z,99149.16
2022-08-14T10:39:30.618Z,99138.75
2022-08-14T10:42:18.318Z,99143.75
2022-08-14T10:44:52.368Z,99147.84
2022-08-14T10:48:07.732Z,99146.63
2022-08-14T10:50:33.133Z,99145.00
2022-08-14T10:53:07.851Z,99147.37
2022-08-14T10:55:45.552Z,99137.56
2022-08-14T10:58:17.480Z,99138.72
2022-08-14T11:00:57.112Z,99135.03
2022-08-14T11:03:56.071Z,99131.94
2022-08-14T11:09:16.973Z,99130.19
2022-08-14T11:12:40.168Z,99128.84
2022-08-14T11:14:59.162Z,99123.94
2022-08-14T11:17:36.278Z,99125.13
2022-08-14T11:20:13.763Z,99124.53
2022-08-14T11:22:52.674Z,99119.53
2022-08-14T11:25:43.949Z,99115.63
2022-08-14T11:28:21.577Z,99104.44
2022-08-14T11:34:01.601Z,99101.56
2022-08-14T11:37:03.806Z,99095.16
2022-08-14T11:39:34.441Z,99093.31
2022-08-14T11:42:58.832Z,99093.41
2022-08-14T11:45:17.098Z,99087.47
2022-08-14T11:48:12.668Z,99084.09
2022-08-14T11:50:38.523Z,99078.44
2022-08-14T11:53:08.522Z,99082.66
2022-08-14T11:55:39.413Z,99079.03
2022-08-14T11:58:15.561Z,99065.38
2022-08-14T12:00:53.954Z,99064.03
2022-08-14T12:03:46.042Z,99060.09
2022-08-14T12:06:35.943Z,99054.53
2022-08-14T12:11:51.612Z,99056.87
2022-08-14T12:14:30.644Z,99051.31
2022-08-14T12:17:12.015Z,99049.38
2022-08-14T12:19:51.581Z,99052.22
2022-08-14T12:27:53.536Z,99048.37
2022-08-14T12:30:34.408Z,99040.72
2022-08-14T12:33:12.663Z,99030.75
2022-08-14T12:35:56.249Z,99035.56
2022-08-14T12:38:33.757Z,99033.66
2022-08-14T12:41:09.934Z,99027.19
2022-08-14T12:46:27.411Z,99033.87
2022-08-14T12:49:25.995Z,99037.56
2022-08-14T12:52:02.382Z,99024.78
2022-08-14T12:54:43.561Z,99024.87
2022-08-14T12:57:42.275Z,99024.66
2022-08-14T13:00:22.700Z,99014.00
2022-08-14T13:03:01.699Z,99022.09
2022-08-14T13:05:33.828Z,99012.91
2022-08-14T13:08:05.893Z,99014.34
2022-08-14T13:10:56.103Z,99003.53
2022-08-14T13:13:38.419Z,99007.50
2022-08-14T13:16:20.875Z,99014.34
2022-08-14T13:19:02.236Z,99006.16
2022-08-14T13:22:05.124Z,99003.56
2022-08-14T13:24:28.419Z,99001.13
2022-08-14T13:27:11.041Z,99007.53
2022-08-14T13:29:53.014Z,99011.19
2022-08-14T13:35:16.268Z,99011.78
2022-08-14T13:37:45.283Z,99013.53
2022-08-14T13:40:26.468Z,98998.94
2022-08-14T13:42:57.705Z,99009.63
2022-08-14T13:45:34.079Z,99002.34
2022-08-14T13:48:27.705Z,99004.22
2022-08-14T13:51:11.725Z,98992.16
2022-08-14T13:56:36.643Z,98986.31
2022-08-14T13:59:07.533Z,98983.56
2022-08-14T14:01:42.830Z,98975.78
2022-08-14T14:04:18.965Z,98982.03
2022-08-14T14:06:53.735Z,98977.25
2022-08-14T14:09:43.822Z,98969.53
2022-08-14T14:12:37.968Z,98975.28
2022-08-14T14:18:04.430Z,98967.84
2022-08-14T14:20:54.910Z,98955.56
2022-08-14T14:23:38.487Z,98959.06
2022-08-14T14:26:20.026Z,98954.09
2022-08-14T14:28:59.460Z,98961.81
2022-08-14T14:31:36.649Z,98963.13
2022-08-14T14:34:29.101Z,98947.63
2022-08-14T14:37:04.551Z,98949.56
2022-08-14T14:39:37.505Z,98950.13
2022-08-14T14:42:13.573Z,98954.19
2022-08-14T14:44:56.642Z,98941.25
2022-08-14T14:47:27.660Z,98934.09
2022-08-14T14:50:03.678Z,98934.50
2022-08-14T14:52:36.980Z,98934.09
2022-08-14T14:55:16.986Z,98938.84
2022-08-14T14:57:56.357Z,98930.78
2022-08-14T15:03:14.064Z,98917.41
2022-08-14T15:05:53.458Z,98920.69
2022-08-14T15:08:26.827Z,98919.56
2022-08-14T15:11:13.555Z,98922.94
2022-08-14T15:16:27.175Z,98925.03
2022-08-14T15:18:59.478Z,98922.94
2022-08-14T15:21:37.674Z,98921.06
2022-08-14T15:24:09.972Z,98922.12
2022-08-14T15:26:46.594Z,98932.09
2022-08-14T15:34:48.837Z,98938.47
2022-08-14T15:37:23.274Z,98928.72
2022-08-14T15:39:55.553Z,98926.50
2022-08-14T15:42:25.735Z,98931.44
2022-08-14T15:45:02.407Z,98931.19
2022-08-14T15:47:41.599Z,98925.97
2022-08-14T15:50:17.501Z,98931.97
2022-08-14T15:52:48.204Z,98928.00
2022-08-14T15:55:25.912Z,98934.91
2022-08-14T15:58:03.481Z,98928.75
2022-08-14T16:00:53.631Z,98935.22
2022-08-14T16:03:25.345Z,98935.28
2022-08-14T16:08:50.108Z,98931.19
2022-08-14T16:11:25.928Z,98923.56
2022-08-14T16:14:06.571Z,98930.38
2022-08-14T16:16:50.220Z,98930.72
2022-08-14T16:19:27.488Z,98927.63
2022-08-14T16:22:01.931Z,98931.56
2022-08-14T16:25:02.530Z,98929.56
2022-08-14T16:27:34.187Z,98923.38
2022-08-14T16:30:20.592Z,98931.16
2022-08-14T16:33:01.976Z,98922.84
2022-08-14T16:38:44.679Z,98932.28
2022-08-14T16:44:31.694Z,98939.78
2022-08-14T16:47:09.695Z,98943.44
2022-08-14T16:50:04.715Z,98946.38
2022-08-14T16:52:44.456Z,98953.94
2022-08-14T16:55:17.878Z,98955.03
2022-08-14T16:57:50.022Z,98945.75
2022-08-14T17:00:29.612Z,98950.84
2022-08-14T17:03:08.587Z,98950.38
2022-08-14T17:05:43.116Z,98957.13
2022-08-14T17:08:41.614Z,98959.72
2022-08-14T17:11:04.715Z,98959.94
2022-08-14T17:14:00.706Z,98952.84
2022-08-14T17:19:31.307Z,98961.91
2022-08-14T17:22:14.025Z,98970.91
2022-08-14T17:24:57.850Z,98974.47
2022-08-14T17:27:31.878Z,98975.69
2022-08-14T17:30:32.614Z,98972.34
2022-08-14T17:33:05.210Z,98976.75
2022-08-14T17:35:57.292Z,98973.44
2022-08-14T17:44:11.541Z,98986.84
2022-08-14T17:46:55.291Z,98987.44
2022-08-14T17:49:37.417Z,98982.00
2022-08-14T17:52:36.382Z,98986.78
2022-08-14T17:55:12.500Z,98992.41
2022-08-14T17:58:20.565Z,98997.41
2022-08-14T18:01:05.696Z,98994.50
2022-08-14T18:03:44.796Z,98995.72
2022-08-14T18:06:40.177Z,98992.44
2022-08-14T18:09:26.576Z,98989.00
2022-08-14T18:11:58.637Z,98988.25
2022-08-14T18:14:48.875Z,98988.66
2022-08-14T18:17:23.811Z,98983.59
2022-08-14T18:22:44.661Z,98988.88
2022-08-14T18:25:26.379Z,98984.72
2022-08-14T18:28:01.554Z,98982.00
2022-08-14T18:30:58.884Z,98981.56
2022-08-14T18:39:23.624Z,98981.03
2022-08-14T18:46:07.532Z,98989.19
2022-08-14T18:49:15.154Z,98976.84
2022-08-14T18:52:19.007Z,98983.06
2022-08-14T18:58:20.784Z,98989.34
2022-08-14T19:01:02.210Z,98986.38
2022-08-14T19:03:43.600Z,98988.91
2022-08-14T19:06:19.490Z,98991.62
2022-08-14T19:11:32.745Z,98989.63
2022-08-14T19:14:06.602Z,98992.16
2022-08-14T19:19:25.838Z,98998.75
2022-08-14T19:22:01.553Z,99001.78
2022-08-14T19:24:50.173Z,98999.00
2022-08-14T19:33:08.728Z,99001.03
2022-08-14T19:36:00.447Z,98998.66
2022-08-14T19:38:47.749Z,99000.03
2022-08-14T19:41:36.564Z,98998.66
2022-08-14T19:52:26.787Z,98997.34
2022-08-14T19:55:10.572Z,98998.38
2022-08-14T19:57:57.906Z,98999.03
2022-08-14T20:00:30.978Z,98998.75
2022-08-14T20:03:14.228Z,98996.84
2022-08-14T20:05:59.717Z,98998.81
2022-08-14T20:09:05.321Z,98991.16
2022-08-14T20:12:00.575Z,99002.84
2022-08-14T20:14:29.939Z,99002.75
2022-08-14T20:17:14.589Z,98996.69
2022-08-14T20:19:51.942Z,98994.78
2022-08-14T20:22:37.018Z,99001.28
2022-08-14T20:25:23.218Z,99010.53
2022-08-14T20:28:29.979Z,99007.38
2022-08-14T20:34:19.080Z,99002.41
2022-08-14T20:37:04.553Z,99008.75
2022-08-14T20:39:40.096Z,99002.91
2022-08-14T20:42:32.174Z,99004.47
2022-08-14T20:45:24.821Z,98999.88
2022-08-14T20:50:44.736Z,99006.81
2022-08-14T20:53:27.606Z,99002.59
2022-08-14T20:56:33.136Z,99008.66
2022-08-14T20:59:24.573Z,99019.88
2022-08-14T21:02:26.961Z,99021.16
2022-08-14T21:04:59.203Z,99014.91
2022-08-14T21:07:35.234Z,99013.75
2022-08-14T21:10:36.296Z,99017.41
2022-08-14T21:13:26.442Z,99020.44
2022-08-14T21:15:56.620Z,99023.75
2022-08-14T21:18:34.701Z,99027.78
2022-08-14T21:21:09.999Z,99027.75
2022-08-14T21:23:54.157Z,99026.94
2022-08-14T21:26:51.163Z,99029.88
2022-08-14T21:29:16.573Z,99035.31
2022-08-14T21:31:55.992Z,99035.03
2022-08-14T21:34:32.596Z,99036.97
2022-08-14T21:37:08.813Z,99039.28
2022-08-14T21:39:38.719Z,99034.34
2022-08-14T21:42:06.848Z,99026.50
2022-08-14T21:44:43.649Z,99027.81
2022-08-14T21:47:16.098Z,99027.81
2022-08-14T21:49:46.383Z,99029.50
2022-08-14T21:52:50.560Z,99026.63
2022-08-14T21:55:12.257Z,99030.22
2022-08-14T21:58:38.371Z,99031.31
2022-08-14T22:00:42.004Z,99033.72
2022-08-14T22:03:17.233Z,99026.88
2022-08-14T22:05:49.788Z,99031.22
2022-08-14T22:08:19.512Z,99030.38
2022-08-14T22:10:51.417Z,99023.25
2022-08-14T22:13:21.235Z,99025.66
2022-08-14T22:15:56.713Z,99023.69
2022-08-14T22:18:32.215Z,99018.94
2022-08-14T22:21:05.812Z,99022.06
2022-08-14T22:23:35.724Z,99026.47
2022-08-14T22:26:03.492Z,99026.09
2022-08-14T22:28:33.410Z,99017.97
2022-08-14T22:31:03.690Z,99018.31
2022-08-14T22:33:38.731Z,99018.31
2022-08-14T22:36:33.843Z,99023.72
2022-08-14T22:39:02.055Z,99012.03
2022-08-14T22:41:36.514Z,99018.66
2022-08-14T22:44:12.563Z,99015.03
2022-08-14T22:46:43.149Z,99009.31
2022-08-14T22:49:16.559Z,99015.41
2022-08-14T22:52:02.698Z,99011.06
2022-08-14T22:54:53.830Z,99018.94
2022-08-14T22:57:22.546Z,99004.00
2022-08-14T22:59:50.282Z,99009.75
2022-08-14T23:02:30.233Z,99007.75
2022-08-14T23:04:59.074Z,99007.56
2022-08-14T23:08:58.699Z,99004.41
2022-08-14T23:10:31.715Z,99003.25
2022-08-14T23:13:02.152Z,99013.19
2022-08-14T23:15:30.665Z,99002.41
2022-08-14T23:17:58.882Z,99009.03
2022-08-14T23:20:29.332Z,99000.09
2022-08-14T23:22:57.853Z,99004.09
2022-08-14T23:25:57.178Z,98997.06
2022-08-14T23:28:34.820Z,99001.13
2022-08-14T23:31:08.491Z,98995.56
2022-08-14T23:33:42.040Z,98989.50
2022-08-14T23:36:31.410Z,98989.66
2022-08-14T23:39:07.030Z,98991.06
2022-08-14T23:41:46.944Z,98986.81
2022-08-14T23:44:23.495Z,98985.50
2022-08-14T23:47:03.365Z,98983.81
2022-08-14T23:50:01.430Z,98990.72
2022-08-14T23:52:50.781Z,98990.75
2022-08-14T23:55:27.850Z,98988.97
2022-08-14T23:57:57.874Z,98988.81
